createdAt,value
2017-08-25T00:00:10.070Z,1004.97
2017-08-25T00:00:50.737Z,1004.99
2017-08-25T00:01:31.231Z,1005
2017-08-25T00:02:11.764Z,1005.02
2017-08-25T00:02:52.335Z,1004.98
2017-08-25T00:03:32.868Z,1004.99
2017-08-25T00:04:13.448Z,1004.97
2017-08-25T00:04:53.983Z,1005
2017-08-25T00:05:34.539Z,1004.99
2017-08-25T00:06:15.098Z,1004.96
2017-08-25T00:06:55.661Z,1004.94
2017-08-25T00:07:36.212Z,1004.89
2017-08-25T00:08:16.777Z,1004.92
2017-08-25T00:08:57.347Z,1004.88
2017-08-25T00:09:37.913Z,1004.81
2017-08-25T00:10:18.496Z,1004.86
2017-08-25T00:10:59.067Z,1004.85
2017-08-25T00:11:39.636Z,1004.82
2017-08-25T00:12:20.203Z,1004.85
2017-08-25T00:13:00.773Z,1004.82
2017-08-25T00:13:41.350Z,1004.83
2017-08-25T00:14:21.911Z,1004.85
2017-08-25T00:15:02.484Z,1004.84
2017-08-25T00:15:43.032Z,1004.86
2017-08-25T00:16:23.599Z,1004.88
2017-08-25T00:17:04.168Z,1004.86
2017-08-25T00:17:44.733Z,1004.87
2017-08-25T00:18:25.310Z,1004.89
2017-08-25T00:19:05.892Z,1004.85
2017-08-25T00:19:46.442Z,1004.94
2017-08-25T00:20:27.015Z,1004.97
2017-08-25T00:21:07.577Z,1004.93
2017-08-25T00:21:48.144Z,1004.99
2017-08-25T00:22:28.718Z,1005.04
2017-08-25T00:23:09.280Z,1005.03
2017-08-25T00:23:49.852Z,1005.06
2017-08-25T00:24:30.426Z,1005.09
2017-08-25T00:25:10.997Z,1005.13
2017-08-25T00:25:51.583Z,1005.12
2017-08-25T00:26:32.144Z,1005.16
2017-08-25T00:27:12.716Z,1005.15
2017-08-25T00:27:53.281Z,1005.19
2017-08-25T00:28:33.865Z,1005.18
2017-08-25T00:29:14.429Z,1005.14
2017-08-25T00:29:54.994Z,1005.14
2017-08-25T00:30:35.558Z,1005.17
2017-08-25T00:31:16.127Z,1005.16
2017-08-25T00:31:56.683Z,1005.13
2017-08-25T00:32:37.225Z,1005.12
2017-08-25T00:33:17.799Z,1005.15
2017-08-25T00:33:58.388Z,1005.14
2017-08-25T00:34:38.963Z,1005.15
2017-08-25T00:35:19.524Z,1005.15
2017-08-25T00:36:00.102Z,1005.12
2017-08-25T00:36:40.640Z,1005.09
2017-08-25T00:37:21.176Z,1005.05
2017-08-25T00:38:01.746Z,1005.09
2017-08-25T00:38:42.297Z,1005.01
2017-08-25T00:39:22.860Z,1005.01
2017-08-25T00:40:03.421Z,1005.04
2017-08-25T00:40:43.986Z,1005.02
2017-08-25T00:41:24.572Z,1005.03
2017-08-25T00:42:05.133Z,1005.03
2017-08-25T00:42:45.685Z,1005.03
2017-08-25T00:43:26.258Z,1005.02
2017-08-25T00:44:06.808Z,1004.98
2017-08-25T00:44:47.377Z,1005.01
2017-08-25T00:45:27.931Z,1005.01
2017-08-25T00:46:08.468Z,1005.04
2017-08-25T00:46:49.016Z,1005.01
2017-08-25T00:47:29.577Z,1004.98
2017-08-25T00:48:10.119Z,1004.94
2017-08-25T00:48:50.693Z,1004.91
2017-08-25T00:49:31.265Z,1004.82
2017-08-25T00:50:11.843Z,1004.8
2017-08-25T00:50:52.406Z,1004.78
2017-08-25T00:51:32.972Z,1004.8
2017-08-25T00:52:13.551Z,1004.81
2017-08-25T00:52:54.113Z,1004.81
2017-08-25T00:53:34.668Z,1004.82
2017-08-25T00:54:15.232Z,1004.88
2017-08-25T00:54:55.793Z,1004.9
2017-08-25T00:55:36.371Z,1004.88
2017-08-25T00:56:16.923Z,1004.93
2017-08-25T00:56:57.480Z,1004.9
2017-08-25T00:57:38.033Z,1004.92
2017-08-25T00:58:18.603Z,1004.9
2017-08-25T00:58:59.165Z,1004.87
2017-08-25T00:59:39.724Z,1004.9
2017-08-25T01:00:20.280Z,1004.92
2017-08-25T01:01:00.838Z,1004.89
2017-08-25T01:01:41.384Z,1004.91
2017-08-25T01:02:21.943Z,1004.92
2017-08-25T01:03:02.501Z,1004.92
2017-08-25T01:03:43.068Z,1004.93
2017-08-25T01:04:23.638Z,1004.94
2017-08-25T01:05:04.204Z,1004.99
2017-08-25T01:05:44.770Z,1004.96
2017-08-25T01:06:25.333Z,1004.99
2017-08-25T01:07:05.908Z,1004.94
2017-08-25T01:07:46.476Z,1004.93
2017-08-25T01:08:27.045Z,1004.93
2017-08-25T01:09:07.614Z,1004.92
2017-08-25T01:09:48.178Z,1004.9
2017-08-25T01:10:28.741Z,1004.88
2017-08-25T01:11:09.315Z,1004.87
2017-08-25T01:11:49.876Z,1004.86
2017-08-25T01:12:30.437Z,1004.87
2017-08-25T01:13:11.023Z,1004.88
2017-08-25T01:13:51.582Z,1004.92
2017-08-25T01:14:32.157Z,1004.93
2017-08-25T01:15:12.713Z,1004.9
2017-08-25T01:15:53.278Z,1004.86
2017-08-25T01:16:33.815Z,1004.87
2017-08-25T01:17:14.360Z,1004.81
2017-08-25T01:17:54.931Z,1004.86
2017-08-25T01:18:35.493Z,1004.84
2017-08-25T01:19:16.047Z,1004.82
2017-08-25T01:19:56.616Z,1004.86
2017-08-25T01:20:37.171Z,1004.84
2017-08-25T01:21:17.732Z,1004.8
2017-08-25T01:21:58.303Z,1004.86
2017-08-25T01:22:38.868Z,1004.87
2017-08-25T01:23:19.413Z,1004.89
2017-08-25T01:23:59.994Z,1004.9
2017-08-25T01:24:40.540Z,1004.92
2017-08-25T01:25:21.076Z,1004.95
2017-08-25T01:26:01.640Z,1004.98
2017-08-25T01:26:42.201Z,1004.99
2017-08-25T01:27:22.751Z,1004.98
2017-08-25T01:28:03.303Z,1004.97
2017-08-25T01:28:43.867Z,1005
2017-08-25T01:29:24.405Z,1005
2017-08-25T01:30:04.936Z,1004.95
2017-08-25T01:30:45.498Z,1004.99
2017-08-25T01:31:26.091Z,1004.95
2017-08-25T01:32:06.663Z,1004.94
2017-08-25T01:32:47.225Z,1004.92
2017-08-25T01:33:27.793Z,1004.95
2017-08-25T01:34:08.339Z,1004.94
2017-08-25T01:34:48.902Z,1004.9
2017-08-25T01:35:29.457Z,1004.94
2017-08-25T01:36:10.025Z,1004.9
2017-08-25T01:36:50.568Z,1004.85
2017-08-25T01:37:31.151Z,1004.92
2017-08-25T01:38:11.699Z,1004.88
2017-08-25T01:38:52.265Z,1004.86
2017-08-25T01:39:32.827Z,1004.89
2017-08-25T01:40:13.388Z,1004.92
2017-08-25T01:40:53.946Z,1004.91
2017-08-25T01:41:34.515Z,1004.9
2017-08-25T01:42:15.091Z,1004.88
2017-08-25T01:42:55.644Z,1004.92
2017-08-25T01:43:36.198Z,1004.91
2017-08-25T01:44:16.770Z,1004.91
2017-08-25T01:44:57.315Z,1004.88
2017-08-25T01:45:37.873Z,1004.93
2017-08-25T01:46:18.448Z,1004.9
2017-08-25T01:46:59.012Z,1004.88
2017-08-25T01:47:39.577Z,1004.85
2017-08-25T01:48:20.145Z,1004.87
2017-08-25T01:49:00.710Z,1004.86
2017-08-25T01:49:41.292Z,1004.83
2017-08-25T01:50:21.852Z,1004.81
2017-08-25T01:51:02.413Z,1004.82
2017-08-25T01:51:42.989Z,1004.81
2017-08-25T01:52:23.561Z,1004.81
2017-08-25T01:53:04.135Z,1004.8
2017-08-25T01:53:44.701Z,1004.83
2017-08-25T01:54:25.283Z,1004.73
2017-08-25T01:55:05.847Z,1004.72
2017-08-25T01:55:46.406Z,1004.7
2017-08-25T01:56:26.994Z,1004.68
2017-08-25T01:57:07.547Z,1004.61
2017-08-25T01:57:48.107Z,1004.64
2017-08-25T01:58:28.664Z,1004.57
2017-08-25T01:59:09.240Z,1004.56
2017-08-25T01:59:49.808Z,1004.56
2017-08-25T02:00:30.354Z,1004.49
2017-08-25T02:01:10.899Z,1004.54
2017-08-25T02:01:51.454Z,1004.53
2017-08-25T02:02:32.031Z,1004.51
2017-08-25T02:03:12.602Z,1004.53
2017-08-25T02:03:53.159Z,1004.54
2017-08-25T02:04:33.717Z,1004.53
2017-08-25T02:05:14.300Z,1004.54
2017-08-25T02:05:54.883Z,1004.52
2017-08-25T02:06:35.482Z,1004.54
2017-08-25T02:07:16.038Z,1004.55
2017-08-25T02:07:56.582Z,1004.54
2017-08-25T02:08:37.152Z,1004.53
2017-08-25T02:09:17.705Z,1004.5
2017-08-25T02:09:58.290Z,1004.5
2017-08-25T02:10:38.856Z,1004.56
2017-08-25T02:11:19.438Z,1004.58
2017-08-25T02:11:59.982Z,1004.7
2017-08-25T02:12:40.541Z,1004.72
2017-08-25T02:13:21.103Z,1004.73
2017-08-25T02:14:01.682Z,1004.72
2017-08-25T02:14:42.240Z,1004.76
2017-08-25T02:15:22.815Z,1004.81
2017-08-25T02:16:03.379Z,1004.83
2017-08-25T02:16:43.932Z,1004.86
2017-08-25T02:17:24.479Z,1004.86
2017-08-25T02:18:05.041Z,1004.78
2017-08-25T02:18:45.599Z,1004.78
2017-08-25T02:19:26.175Z,1004.89
2017-08-25T02:20:06.737Z,1004.85
2017-08-25T02:20:47.291Z,1004.89
2017-08-25T02:21:27.864Z,1004.89
2017-08-25T02:22:08.431Z,1004.89
2017-08-25T02:22:49.017Z,1004.96
2017-08-25T02:23:29.591Z,1004.99
2017-08-25T02:24:10.153Z,1005.05
2017-08-25T02:24:50.739Z,1005.02
2017-08-25T02:25:31.315Z,1005.01
2017-08-25T02:26:11.885Z,1004.99
2017-08-25T02:26:52.460Z,1005.02
2017-08-25T02:27:33.021Z,1005.02
2017-08-25T02:28:13.585Z,1004.94
2017-08-25T02:28:54.147Z,1004.82
2017-08-25T02:29:34.707Z,1004.86
2017-08-25T02:30:15.274Z,1004.83
2017-08-25T02:30:55.857Z,1004.79
2017-08-25T02:31:36.426Z,1004.8
2017-08-25T02:32:16.972Z,1004.78
2017-08-25T02:32:57.527Z,1004.81
2017-08-25T02:33:38.112Z,1004.81
2017-08-25T02:34:18.661Z,1004.79
2017-08-25T02:34:59.211Z,1004.76
2017-08-25T02:35:39.788Z,1004.78
2017-08-25T02:36:20.360Z,1004.76
2017-08-25T02:37:00.922Z,1004.7
2017-08-25T02:37:41.488Z,1004.73
2017-08-25T02:38:22.044Z,1004.67
2017-08-25T02:39:02.604Z,1004.63
2017-08-25T02:39:43.188Z,1004.71
2017-08-25T02:40:23.753Z,1004.67
2017-08-25T02:41:04.319Z,1004.66
2017-08-25T02:41:44.905Z,1004.68
2017-08-25T02:42:25.462Z,1004.69
2017-08-25T02:43:06.015Z,1004.7
2017-08-25T02:43:46.567Z,1004.74
2017-08-25T02:44:27.121Z,1004.7
2017-08-25T02:45:07.667Z,1004.7
2017-08-25T02:45:48.224Z,1004.75
2017-08-25T02:46:28.776Z,1004.74
2017-08-25T02:47:09.321Z,1004.76
2017-08-25T02:47:49.879Z,1004.7
2017-08-25T02:48:30.438Z,1004.71
2017-08-25T02:49:11.003Z,1004.69
2017-08-25T02:49:51.588Z,1004.73
2017-08-25T02:50:32.166Z,1004.73
2017-08-25T02:51:12.720Z,1004.75
2017-08-25T02:51:53.270Z,1004.72
2017-08-25T02:52:33.827Z,1004.74
2017-08-25T02:53:14.379Z,1004.77
2017-08-25T02:53:54.925Z,1004.76
2017-08-25T02:54:35.480Z,1004.77
2017-08-25T02:55:16.036Z,1004.76
2017-08-25T02:55:56.594Z,1004.73
2017-08-25T02:56:37.160Z,1004.75
2017-08-25T02:57:17.748Z,1004.73
2017-08-25T02:57:58.300Z,1004.74
2017-08-25T02:58:38.861Z,1004.7
2017-08-25T02:59:19.425Z,1004.71
2017-08-25T02:59:59.975Z,1004.73
2017-08-25T03:00:40.553Z,1004.72
2017-08-25T03:01:21.103Z,1004.72
2017-08-25T03:02:01.681Z,1004.73
2017-08-25T03:02:42.241Z,1004.76
2017-08-25T03:03:22.813Z,1004.78
2017-08-25T03:04:03.400Z,1004.77
2017-08-25T03:04:43.953Z,1004.78
2017-08-25T03:05:24.524Z,1004.78
2017-08-25T03:06:05.088Z,1004.77
2017-08-25T03:06:45.664Z,1004.73
2017-08-25T03:07:26.236Z,1004.77
2017-08-25T03:08:06.804Z,1004.8
2017-08-25T03:08:47.364Z,1004.75
2017-08-25T03:09:27.936Z,1004.78
2017-08-25T03:10:08.507Z,1004.78
2017-08-25T03:10:49.072Z,1004.78
2017-08-25T03:11:29.647Z,1004.76
2017-08-25T03:12:10.201Z,1004.75
2017-08-25T03:12:50.785Z,1004.78
2017-08-25T03:13:31.353Z,1004.76
2017-08-25T03:14:11.938Z,1004.76
2017-08-25T03:14:52.498Z,1004.77
2017-08-25T03:15:33.072Z,1004.75
2017-08-25T03:16:13.622Z,1004.8
2017-08-25T03:16:54.182Z,1004.82
2017-08-25T03:17:34.739Z,1004.81
2017-08-25T03:18:15.319Z,1004.82
2017-08-25T03:18:55.882Z,1004.86
2017-08-25T03:19:36.448Z,1004.82
2017-08-25T03:20:17.015Z,1004.8
2017-08-25T03:20:57.570Z,1004.79
2017-08-25T03:21:38.141Z,1004.83
2017-08-25T03:22:18.719Z,1004.81
2017-08-25T03:22:59.284Z,1004.83
2017-08-25T03:23:39.847Z,1004.81
2017-08-25T03:24:20.422Z,1004.76
2017-08-25T03:25:00.989Z,1004.8
2017-08-25T03:25:41.560Z,1004.8
2017-08-25T03:26:22.131Z,1004.81
2017-08-25T03:27:02.701Z,1004.83
2017-08-25T03:27:43.263Z,1004.79
2017-08-25T03:28:23.823Z,1004.83
2017-08-25T03:29:04.376Z,1004.84
2017-08-25T03:29:44.932Z,1004.81
2017-08-25T03:30:25.488Z,1004.76
2017-08-25T03:31:06.053Z,1004.77
2017-08-25T03:31:46.644Z,1004.79
2017-08-25T03:32:27.219Z,1004.78
2017-08-25T03:33:07.773Z,1004.77
2017-08-25T03:33:48.326Z,1004.76
2017-08-25T03:34:28.886Z,1004.75
2017-08-25T03:35:09.440Z,1004.74
2017-08-25T03:35:49.996Z,1004.72
2017-08-25T03:36:30.552Z,1004.71
2017-08-25T03:37:11.129Z,1004.72
2017-08-25T03:37:51.691Z,1004.65
2017-08-25T03:38:32.267Z,1004.69
2017-08-25T03:39:12.836Z,1004.72
2017-08-25T03:39:53.412Z,1004.73
2017-08-25T03:40:33.996Z,1004.71
2017-08-25T03:41:14.582Z,1004.68
2017-08-25T03:41:55.123Z,1004.7
2017-08-25T03:42:35.691Z,1004.68
2017-08-25T03:43:16.255Z,1004.68
2017-08-25T03:43:56.851Z,1004.71
2017-08-25T03:44:37.411Z,1004.69
2017-08-25T03:45:17.983Z,1004.74
2017-08-25T03:45:58.548Z,1004.79
2017-08-25T03:46:39.110Z,1004.76
2017-08-25T03:47:19.681Z,1004.72
2017-08-25T03:48:00.233Z,1004.74
2017-08-25T03:48:40.804Z,1004.75
2017-08-25T03:49:21.369Z,1004.8
2017-08-25T03:50:01.944Z,1004.81
2017-08-25T03:50:42.502Z,1004.84
2017-08-25T03:51:23.071Z,1004.81
2017-08-25T03:52:03.632Z,1004.79
2017-08-25T03:52:44.191Z,1004.81
2017-08-25T03:53:24.744Z,1004.82
2017-08-25T03:54:05.294Z,1004.77
2017-08-25T03:54:45.872Z,1004.83
2017-08-25T03:55:26.424Z,1004.82
2017-08-25T03:56:06.992Z,1004.81
2017-08-25T03:56:47.561Z,1004.82
2017-08-25T03:57:28.114Z,1004.86
2017-08-25T03:58:08.675Z,1004.85
2017-08-25T03:58:49.228Z,1004.85
2017-08-25T03:59:29.789Z,1004.83
2017-08-25T04:00:10.338Z,1004.86
2017-08-25T04:00:50.898Z,1004.87
2017-08-25T04:01:31.467Z,1004.86
2017-08-25T04:02:12.056Z,1004.87
2017-08-25T04:02:52.633Z,1004.87
2017-08-25T04:03:33.209Z,1004.91
2017-08-25T04:04:13.770Z,1004.85
2017-08-25T04:04:54.296Z,1004.87
2017-08-25T04:05:34.853Z,1004.88
2017-08-25T04:06:15.407Z,1004.84
2017-08-25T04:06:55.976Z,1004.85
2017-08-25T04:07:36.524Z,1004.87
2017-08-25T04:08:17.075Z,1004.83
2017-08-25T04:08:57.643Z,1004.9
2017-08-25T04:09:38.217Z,1004.9
2017-08-25T04:10:18.749Z,1004.91
2017-08-25T04:10:59.301Z,1004.95
2017-08-25T04:11:39.860Z,1004.95
2017-08-25T04:12:20.418Z,1004.98
2017-08-25T04:13:00.990Z,1004.95
2017-08-25T04:13:41.565Z,1005.01
2017-08-25T04:14:22.131Z,1005.02
2017-08-25T04:15:02.710Z,1004.98
2017-08-25T04:15:43.281Z,1005.04
2017-08-25T04:16:23.866Z,1005.01
2017-08-25T04:17:04.417Z,1005.01
2017-08-25T04:17:44.991Z,1005.08
2017-08-25T04:18:25.559Z,1005.07
2017-08-25T04:19:06.115Z,1005.08
2017-08-25T04:19:46.668Z,1005.03
2017-08-25T04:20:27.245Z,1005.06
2017-08-25T04:21:07.817Z,1005.11
2017-08-25T04:21:48.484Z,1005.06
2017-08-25T04:22:29.050Z,1005.11
2017-08-25T04:23:09.615Z,1005.1
2017-08-25T04:23:50.170Z,1005.11
2017-08-25T04:24:30.732Z,1005.12
2017-08-25T04:25:11.294Z,1005.12
2017-08-25T04:25:51.885Z,1005.14
2017-08-25T04:26:32.456Z,1005.1
2017-08-25T04:27:13.013Z,1005.09
2017-08-25T04:27:53.587Z,1005.09
2017-08-25T04:28:34.206Z,1005.11
2017-08-25T04:29:14.769Z,1005.06
2017-08-25T04:29:55.340Z,1005.09
2017-08-25T04:30:35.893Z,1005.09
2017-08-25T04:31:16.469Z,1005.09
2017-08-25T04:31:57.047Z,1005.1
2017-08-25T04:32:37.609Z,1005.08
2017-08-25T04:33:18.187Z,1005.09
2017-08-25T04:33:58.818Z,1005.05
2017-08-25T04:34:39.358Z,1005.06
2017-08-25T04:35:19.915Z,1005.08
2017-08-25T04:36:00.467Z,1005.07
2017-08-25T04:36:41.040Z,1005.04
2017-08-25T04:37:21.604Z,1005.07
2017-08-25T04:38:02.178Z,1005.04
2017-08-25T04:38:42.737Z,1005.07
2017-08-25T04:39:23.336Z,1005.12
2017-08-25T04:40:03.880Z,1005.07
2017-08-25T04:40:44.455Z,1005.04
2017-08-25T04:41:25.035Z,1005.04
2017-08-25T04:42:05.576Z,1005.05
2017-08-25T04:42:46.151Z,1005.01
2017-08-25T04:43:26.717Z,1005.12
2017-08-25T04:44:07.286Z,1005.08
2017-08-25T04:44:47.856Z,1005.05
2017-08-25T04:45:28.454Z,1005.08
2017-08-25T04:46:08.988Z,1005.09
2017-08-25T04:46:49.568Z,1005.1
2017-08-25T04:47:30.120Z,1005.07
2017-08-25T04:48:10.714Z,1005.12
2017-08-25T04:48:51.297Z,1005.06
2017-08-25T04:49:31.815Z,1005.14
2017-08-25T04:50:12.384Z,1005.11
2017-08-25T04:50:52.957Z,1005.13
2017-08-25T04:51:33.529Z,1005.14
2017-08-25T04:52:14.080Z,1005.12
2017-08-25T04:52:54.655Z,1005.14
2017-08-25T04:53:35.195Z,1005.12
2017-08-25T04:54:15.779Z,1005.1
2017-08-25T04:54:56.363Z,1005.14
2017-08-25T04:55:36.936Z,1005.14
2017-08-25T04:56:17.509Z,1005.17
2017-08-25T04:56:58.061Z,1005.13
2017-08-25T04:57:38.606Z,1005.13
2017-08-25T04:58:19.183Z,1005.18
2017-08-25T04:58:59.749Z,1005.14
2017-08-25T04:59:40.313Z,1005.18
2017-08-25T05:00:20.871Z,1005.18
2017-08-25T05:01:01.442Z,1005.16
2017-08-25T05:01:42.008Z,1005.17
2017-08-25T05:02:22.563Z,1005.17
2017-08-25T05:03:03.117Z,1005.15
2017-08-25T05:03:43.695Z,1005.17
2017-08-25T05:04:24.278Z,1005.19
2017-08-25T05:05:04.849Z,1005.17
2017-08-25T05:05:45.423Z,1005.19
2017-08-25T05:06:25.986Z,1005.19
2017-08-25T05:07:06.600Z,1005.16
2017-08-25T05:07:47.165Z,1005.19
2017-08-25T05:08:27.738Z,1005.19
2017-08-25T05:09:08.308Z,1005.16
2017-08-25T05:09:48.882Z,1005.14
2017-08-25T05:10:29.459Z,1005.15
2017-08-25T05:11:10.023Z,1005.15
2017-08-25T05:11:50.574Z,1005.15
2017-08-25T05:12:31.127Z,1005.1
2017-08-25T05:13:11.702Z,1005.12
2017-08-25T05:13:52.273Z,1005.09
2017-08-25T05:14:32.843Z,1005.08
2017-08-25T05:15:13.467Z,1005.07
2017-08-25T05:15:53.998Z,1005.1
2017-08-25T05:16:34.604Z,1005.08
2017-08-25T05:17:15.129Z,1005.08
2017-08-25T05:17:56.087Z,1005.08
2017-08-25T05:18:36.791Z,1005.1
2017-08-25T05:19:17.353Z,1005.09
2017-08-25T05:19:57.887Z,1005.05
2017-08-25T05:20:38.454Z,1005.07
2017-08-25T05:21:19.007Z,1005.08
2017-08-25T05:21:59.606Z,1005.06
2017-08-25T05:22:40.185Z,1005.07
2017-08-25T05:23:20.683Z,1005.03
2017-08-25T05:24:01.253Z,1005.03
2017-08-25T05:24:41.767Z,1005.03
2017-08-25T05:25:22.344Z,1005.05
2017-08-25T05:26:02.906Z,1005.05
2017-08-25T05:26:43.583Z,1005.06
2017-08-25T05:27:24.038Z,1004.99
2017-08-25T05:28:04.612Z,1005.04
2017-08-25T05:28:45.179Z,1004.99
2017-08-25T05:29:25.736Z,1005
2017-08-25T05:30:06.294Z,1005.02
2017-08-25T05:30:46.836Z,1005.01
2017-08-25T05:31:27.402Z,1005
2017-08-25T05:32:08.004Z,1004.97
2017-08-25T05:32:48.508Z,1004.99
2017-08-25T05:33:29.044Z,1004.98
2017-08-25T05:34:09.634Z,1004.99
2017-08-25T05:34:50.207Z,1005.02
2017-08-25T05:35:30.809Z,1005.05
2017-08-25T05:36:11.457Z,1005.02
2017-08-25T05:38:30.968Z,1005.04
2017-08-25T05:39:11.527Z,1005.06
2017-08-25T05:39:52.096Z,1005.02
2017-08-25T05:40:32.671Z,1004.99
2017-08-25T05:41:13.454Z,1005.05
2017-08-25T05:41:53.753Z,1005.02
2017-08-25T05:42:34.290Z,1005.04
2017-08-25T05:43:14.798Z,1005.07
2017-08-25T05:43:55.550Z,1005.04
2017-08-25T05:44:36.076Z,1005.03
2017-08-25T05:45:16.608Z,1005.11
2017-08-25T05:45:57.111Z,1005.07
2017-08-25T05:46:38.437Z,1005.08
2017-08-25T05:47:19.639Z,1005.1
2017-08-25T05:48:00.202Z,1005.06
2017-08-25T05:48:40.768Z,1005.09
2017-08-25T05:49:21.286Z,1005.07
2017-08-25T05:50:01.857Z,1005.11
2017-08-25T05:50:42.338Z,1005.08
2017-08-25T05:51:22.958Z,1005.08
2017-08-25T05:52:03.530Z,1005.08
2017-08-25T05:52:44.022Z,1005.06
2017-08-25T05:53:24.604Z,1005.16
2017-08-25T05:54:05.148Z,1005.11
2017-08-25T05:54:45.771Z,1005.09
2017-08-25T05:57:14.119Z,1005.1
2017-08-25T05:57:54.671Z,1005.12
2017-08-25T05:58:35.640Z,1005.14
2017-08-25T05:59:16.188Z,1005.19
2017-08-25T05:59:56.725Z,1005.16
2017-08-25T06:00:37.283Z,1005.19
2017-08-25T06:01:17.863Z,1005.19
2017-08-25T06:01:58.638Z,1005.13
2017-08-25T06:02:39.209Z,1005.17
2017-08-25T06:03:19.716Z,1005.15
2017-08-25T06:04:00.341Z,1005.2
2017-08-25T06:04:41.210Z,1005.21
2017-08-25T06:05:21.785Z,1005.21
2017-08-25T06:06:02.317Z,1005.21
2017-08-25T06:06:42.855Z,1005.18
2017-08-25T06:07:23.347Z,1005.22
2017-08-25T06:08:03.914Z,1005.26
2017-08-25T06:08:44.439Z,1005.24
2017-08-25T06:09:25.019Z,1005.28
2017-08-25T06:10:06.119Z,1005.28
2017-08-25T06:10:46.550Z,1005.31
2017-08-25T06:11:27.189Z,1005.31
2017-08-25T06:12:07.729Z,1005.33
2017-08-25T06:12:48.276Z,1005.31
2017-08-25T06:13:29.486Z,1005.31
2017-08-25T06:14:10.056Z,1005.34
2017-08-25T06:14:50.590Z,1005.31
2017-08-25T06:15:31.137Z,1005.32
2017-08-25T06:16:11.806Z,1005.37
2017-08-25T06:16:52.362Z,1005.38
2017-08-25T06:17:33.242Z,1005.32
2017-08-25T06:18:13.838Z,1005.36
2017-08-25T06:18:54.422Z,1005.38
2017-08-25T06:19:34.985Z,1005.35
2017-08-25T06:20:15.538Z,1005.35
2017-08-25T06:20:56.074Z,1005.39
2017-08-25T06:21:36.605Z,1005.4
2017-08-25T06:22:17.106Z,1005.39
2017-08-25T06:22:57.666Z,1005.43
2017-08-25T06:23:38.519Z,1005.41
2017-08-25T06:24:19.040Z,1005.44
2017-08-25T06:24:59.564Z,1005.44
2017-08-25T06:25:40.252Z,1005.4
2017-08-25T06:26:20.792Z,1005.45
2017-08-25T06:27:01.305Z,1005.4
2017-08-25T06:27:41.795Z,1005.41
2017-08-25T06:28:23.283Z,1005.4
2017-08-25T06:29:03.820Z,1005.37
2017-08-25T06:29:44.412Z,1005.41
2017-08-25T06:30:25.002Z,1005.42
2017-08-25T06:31:06.222Z,1005.44
2017-08-25T06:31:46.748Z,1005.4
2017-08-25T06:32:27.332Z,1005.4
2017-08-25T06:33:07.915Z,1005.38
2017-08-25T06:33:48.771Z,1005.43
2017-08-25T06:34:29.359Z,1005.39
2017-08-25T06:35:09.887Z,1005.4
2017-08-25T06:35:50.453Z,1005.41
2017-08-25T06:36:31.002Z,1005.38
2017-08-25T06:37:11.550Z,1005.38
2017-08-25T06:37:52.129Z,1005.4
2017-08-25T06:38:32.753Z,1005.44
2017-08-25T06:39:13.239Z,1005.46
2017-08-25T06:39:53.876Z,1005.41
2017-08-25T06:40:34.388Z,1005.39
2017-08-25T06:41:15.012Z,1005.4
2017-08-25T06:41:55.502Z,1005.43
2017-08-25T06:42:36.056Z,1005.41
2017-08-25T06:43:16.651Z,1005.39
2017-08-25T06:43:57.179Z,1005.41
2017-08-25T06:44:37.745Z,1005.35
2017-08-25T06:45:18.256Z,1005.37
2017-08-25T06:45:59.232Z,1005.41
2017-08-25T06:46:39.373Z,1005.38
2017-08-25T06:47:20.219Z,1005.36
2017-08-25T06:48:00.449Z,1005.36
2017-08-25T06:48:41.007Z,1005.34
2017-08-25T06:49:21.633Z,1005.35
2017-08-25T06:50:02.409Z,1005.32
2017-08-25T06:50:42.854Z,1005.29
2017-08-25T06:51:23.447Z,1005.29
2017-08-25T06:52:03.995Z,1005.31
2017-08-25T06:52:44.678Z,1005.28
2017-08-25T06:53:25.700Z,1005.26
2017-08-25T06:54:06.298Z,1005.28
2017-08-25T06:54:46.834Z,1005.28
2017-08-25T06:55:27.410Z,1005.31
2017-08-25T06:56:07.916Z,1005.29
2017-08-25T06:56:48.527Z,1005.3
2017-08-25T06:57:29.049Z,1005.29
2017-08-25T06:58:09.633Z,1005.29
2017-08-25T06:58:50.147Z,1005.27
2017-08-25T06:59:30.736Z,1005.28
2017-08-25T07:00:11.281Z,1005.32
2017-08-25T07:00:51.802Z,1005.34
2017-08-25T07:01:33.805Z,1005.34
2017-08-25T07:02:14.354Z,1005.34
2017-08-25T07:02:54.924Z,1005.33
2017-08-25T07:03:35.384Z,1005.33
2017-08-25T07:04:15.945Z,1005.33
2017-08-25T07:04:56.482Z,1005.34
2017-08-25T07:05:36.962Z,1005.35
2017-08-25T07:06:17.596Z,1005.32
2017-08-25T07:06:58.132Z,1005.37
2017-08-25T07:07:38.659Z,1005.4
2017-08-25T07:08:19.424Z,1005.37
2017-08-25T07:09:00.012Z,1005.43
2017-08-25T07:09:40.776Z,1005.37
2017-08-25T07:12:00.778Z,1005.42
2017-08-25T07:14:20.419Z,1005.43
2017-08-25T07:15:01.282Z,1005.44
2017-08-25T07:15:41.840Z,1005.41
2017-08-25T07:16:22.450Z,1005.39
2017-08-25T07:17:04.277Z,1005.4
2017-08-25T07:17:44.724Z,1005.41
2017-08-25T07:18:25.944Z,1005.41
2017-08-25T07:19:07.519Z,1005.42
2017-08-25T07:19:50.673Z,1005.41
2017-08-25T07:20:31.139Z,1005.41
2017-08-25T07:21:11.651Z,1005.43
2017-08-25T07:21:52.328Z,1005.42
2017-08-25T07:22:33.098Z,1005.43
2017-08-25T07:23:13.563Z,1005.44
2017-08-25T07:23:54.138Z,1005.39
2017-08-25T07:24:34.698Z,1005.43
2017-08-25T07:25:17.839Z,1005.4
2017-08-25T07:25:58.434Z,1005.37
2017-08-25T07:26:39.006Z,1005.37
2017-08-25T07:27:19.524Z,1005.35
2017-08-25T07:28:02.943Z,1005.33
2017-08-25T07:28:43.555Z,1005.35
2017-08-25T07:29:24.112Z,1005.37
2017-08-25T07:30:04.646Z,1005.42
2017-08-25T07:30:45.213Z,1005.43
2017-08-25T07:31:25.774Z,1005.42
2017-08-25T07:32:06.344Z,1005.42
2017-08-25T07:32:46.977Z,1005.43
2017-08-25T07:33:27.457Z,1005.45
2017-08-25T07:34:08.108Z,1005.46
2017-08-25T07:34:48.554Z,1005.48
2017-08-25T07:35:29.110Z,1005.49
2017-08-25T07:36:09.657Z,1005.49
2017-08-25T07:36:50.215Z,1005.53
2017-08-25T07:37:30.797Z,1005.5
2017-08-25T07:38:11.312Z,1005.5
2017-08-25T07:38:51.891Z,1005.52
2017-08-25T07:39:32.448Z,1005.54
2017-08-25T07:40:13.015Z,1005.54
2017-08-25T07:40:53.582Z,1005.53
2017-08-25T07:41:35.507Z,1005.45
2017-08-25T07:42:15.527Z,1005.48
2017-08-25T07:42:56.772Z,1005.46
2017-08-25T07:43:37.591Z,1005.45
2017-08-25T07:44:19.868Z,1005.41
2017-08-25T07:45:00.371Z,1005.37
2017-08-25T07:45:40.909Z,1005.36
2017-08-25T07:46:21.503Z,1005.37
2017-08-25T07:47:02.054Z,1005.35
2017-08-25T07:47:42.621Z,1005.31
2017-08-25T07:48:23.210Z,1005.38
2017-08-25T07:49:03.706Z,1005.34
2017-08-25T07:49:44.301Z,1005.37
2017-08-25T07:50:24.895Z,1005.35
2017-08-25T07:51:05.482Z,1005.4
2017-08-25T07:51:45.988Z,1005.43
2017-08-25T07:52:26.573Z,1005.38
2017-08-25T07:53:07.129Z,1005.39
2017-08-25T07:53:47.628Z,1005.38
2017-08-25T07:54:28.208Z,1005.34
2017-08-25T07:55:08.756Z,1005.35
2017-08-25T07:55:49.341Z,1005.37
2017-08-25T07:56:29.884Z,1005.4
2017-08-25T07:57:10.448Z,1005.41
2017-08-25T07:57:51.021Z,1005.39
2017-08-25T07:58:31.537Z,1005.39
2017-08-25T07:59:12.076Z,1005.42
2017-08-25T07:59:52.643Z,1005.41
2017-08-25T08:00:33.233Z,1005.43
2017-08-25T08:01:13.816Z,1005.39
2017-08-25T08:01:54.388Z,1005.41
2017-08-25T08:02:34.948Z,1005.4
2017-08-25T08:03:15.542Z,1005.42
2017-08-25T08:03:56.204Z,1005.43
2017-08-25T08:04:36.873Z,1005.43
2017-08-25T08:05:17.458Z,1005.38
2017-08-25T08:05:58.019Z,1005.39
2017-08-25T08:06:38.550Z,1005.38
2017-08-25T08:07:19.160Z,1005.37
2017-08-25T08:07:59.670Z,1005.37
2017-08-25T08:08:40.240Z,1005.36
2017-08-25T08:09:20.781Z,1005.32
2017-08-25T08:10:01.319Z,1005.32
2017-08-25T08:10:41.900Z,1005.3
2017-08-25T08:11:23.268Z,1005.33
2017-08-25T08:12:03.904Z,1005.3
2017-08-25T08:12:45.086Z,1005.27
2017-08-25T08:13:25.640Z,1005.28
2017-08-25T08:14:06.200Z,1005.31
2017-08-25T08:14:46.765Z,1005.32
2017-08-25T08:15:27.357Z,1005.33
2017-08-25T08:16:08.265Z,1005.36
2017-08-25T08:16:48.832Z,1005.3
2017-08-25T08:17:29.397Z,1005.38
2017-08-25T08:18:10.540Z,1005.38
2017-08-25T08:18:51.112Z,1005.37
2017-08-25T08:19:31.680Z,1005.4